createdAt,value
2018-04-26T00:01:02.043Z,98.60
2018-04-26T00:03:31.033Z,98.50
2018-04-26T00:06:00.180Z,98.50
2018-04-26T00:08:28.231Z,98.70
2018-04-26T00:10:56.628Z,98.50
2018-04-26T00:13:25.615Z,98.50
2018-04-26T00:15:54.089Z,98.20
2018-04-26T00:18:22.401Z,98.00
2018-04-26T00:20:50.786Z,98.00
2018-04-26T00:23:19.314Z,97.70
2018-04-26T00:25:47.492Z,97.80
2018-04-26T00:28:15.794Z,97.80
2018-04-26T00:30:44.143Z,97.60
2018-04-26T00:33:12.429Z,97.60
2018-04-26T00:35:40.702Z,97.00
2018-04-26T00:38:08.863Z,97.10
2018-04-26T00:40:37.985Z,95.70
2018-04-26T00:43:06.342Z,95.60
2018-04-26T00:45:35.546Z,94.30
2018-04-26T00:48:03.732Z,94.30
2018-04-26T00:50:32.652Z,93.70
2018-04-26T00:53:01.106Z,93.70
2018-04-26T00:55:29.226Z,93.60
2018-04-26T00:57:57.458Z,93.40
2018-04-26T01:00:25.751Z,94.20
2018-04-26T01:02:54.213Z,94.30
2018-04-26T01:05:22.276Z,94.00
2018-04-26T01:07:50.453Z,94.00
2018-04-26T01:10:18.840Z,94.00
2018-04-26T01:12:48.243Z,93.90
2018-04-26T01:15:16.418Z,93.90
2018-04-26T01:17:45.727Z,93.20
2018-04-26T01:20:14.210Z,93.20
2018-04-26T01:22:42.540Z,93.10
2018-04-26T01:25:10.859Z,93.20
2018-04-26T01:27:39.343Z,93.30
2018-04-26T01:30:07.741Z,93.00
2018-04-26T01:32:36.001Z,93.20
2018-04-26T01:35:04.052Z,92.50
2018-04-26T01:37:45.407Z,92.80
2018-04-26T01:40:13.525Z,92.60
2018-04-26T01:42:41.738Z,92.00
2018-04-26T01:45:10.659Z,91.20
2018-04-26T01:47:38.880Z,91.20
2018-04-26T01:50:08.146Z,91.50
2018-04-26T01:52:36.598Z,91.30
2018-04-26T01:55:04.873Z,91.30
2018-04-26T01:57:33.504Z,91.40
2018-04-26T02:00:01.912Z,91.50
2018-04-26T02:02:30.110Z,91.50
2018-04-26T02:04:58.500Z,91.80
2018-04-26T02:07:26.920Z,92.00
2018-04-26T02:09:55.266Z,92.30
2018-04-26T02:12:23.610Z,92.60
2018-04-26T02:14:52.058Z,92.70
2018-04-26T02:17:20.617Z,93.00
2018-04-26T02:19:49.018Z,93.40
2018-04-26T02:22:17.457Z,94.80
2018-04-26T02:24:45.612Z,95.50
2018-04-26T02:27:13.976Z,95.70
2018-04-26T02:29:42.184Z,95.90
2018-04-26T02:32:10.569Z,95.90
2018-04-26T02:34:38.755Z,95.80
2018-04-26T02:37:07.668Z,95.70
2018-04-26T02:39:35.835Z,95.90
2018-04-26T02:42:05.438Z,96.00
2018-04-26T02:44:33.735Z,96.00
2018-04-26T02:47:02.772Z,95.70
2018-04-26T02:49:31.187Z,95.70
2018-04-26T02:51:59.503Z,95.50
2018-04-26T02:54:28.110Z,95.30
2018-04-26T02:56:56.563Z,95.30
2018-04-26T02:59:24.781Z,95.10
2018-04-26T03:01:53.348Z,95.00
2018-04-26T03:04:21.933Z,94.90
2018-04-26T03:06:50.430Z,94.80
2018-04-26T03:09:19.578Z,94.60
2018-04-26T03:11:47.948Z,94.60
2018-04-26T03:14:18.381Z,94.50
2018-04-26T03:16:46.642Z,94.50
2018-04-26T03:19:14.794Z,94.60
2018-04-26T03:21:44.634Z,94.70
2018-04-26T03:24:13.023Z,94.70
2018-04-26T03:26:41.242Z,94.40
2018-04-26T03:29:10.371Z,94.30
2018-04-26T03:31:40.276Z,94.20
2018-04-26T03:34:09.718Z,94.40
2018-04-26T03:36:38.453Z,94.40
2018-04-26T03:39:08.161Z,94.40
2018-04-26T03:41:36.696Z,94.00
2018-04-26T03:44:05.125Z,93.70
2018-04-26T03:46:33.611Z,94.10
2018-04-26T03:49:01.867Z,94.00
2018-04-26T03:51:30.229Z,93.80
2018-04-26T03:53:58.723Z,93.80
2018-04-26T03:56:27.216Z,93.70
2018-04-26T03:58:55.639Z,94.00
2018-04-26T04:01:34.762Z,93.70
2018-04-26T04:04:14.043Z,93.50
2018-04-26T04:06:42.277Z,93.50
2018-04-26T04:09:10.869Z,93.50
2018-04-26T04:11:39.618Z,93.10
2018-04-26T04:14:09.296Z,93.00
2018-04-26T04:16:37.624Z,93.00
2018-04-26T04:19:06.257Z,92.80
2018-04-26T04:21:34.534Z,92.60
2018-04-26T04:24:03.202Z,92.10
2018-04-26T04:26:31.599Z,92.10
2018-04-26T04:29:00.271Z,92.20
2018-04-26T04:31:28.769Z,92.30
2018-04-26T04:33:57.137Z,91.90
2018-04-26T04:36:25.940Z,91.90
2018-04-26T04:38:55.207Z,92.30
2018-04-26T04:41:23.402Z,92.00
2018-04-26T04:43:52.093Z,91.90
2018-04-26T04:46:20.555Z,92.50
2018-04-26T04:48:48.864Z,92.20
2018-04-26T04:51:17.185Z,92.20
2018-04-26T04:53:45.553Z,92.10
2018-04-26T04:56:14.601Z,92.30
2018-04-26T04:58:42.755Z,92.30
2018-04-26T05:01:10.732Z,92.10
2018-04-26T05:03:39.466Z,92.20
2018-04-26T05:06:07.663Z,92.20
2018-04-26T05:08:36.182Z,92.20
2018-04-26T05:11:05.799Z,92.30
2018-04-26T05:13:34.228Z,92.20
2018-04-26T05:16:02.344Z,92.20
2018-04-26T05:18:30.812Z,92.10
2018-04-26T05:20:59.205Z,92.00
2018-04-26T05:23:27.903Z,91.70
2018-04-26T05:25:56.398Z,91.80
2018-04-26T05:28:25.356Z,91.60
2018-04-26T05:30:53.833Z,91.90
2018-04-26T05:33:22.651Z,91.40
2018-04-26T05:35:51.228Z,91.40
2018-04-26T05:38:21.557Z,91.20
2018-04-26T05:40:49.708Z,91.10
2018-04-26T05:43:19.186Z,90.80
2018-04-26T05:45:47.382Z,91.00
2018-04-26T05:48:15.839Z,91.00
2018-04-26T05:50:44.223Z,90.90
2018-04-26T05:53:12.644Z,90.90
2018-04-26T05:55:42.154Z,90.80
2018-04-26T05:58:11.054Z,90.70
2018-04-26T06:00:40.028Z,90.20
2018-04-26T06:03:09.460Z,90.30
2018-04-26T06:05:37.777Z,90.30
2018-04-26T06:08:07.168Z,90.40
2018-04-26T06:10:35.424Z,90.60
2018-04-26T06:13:03.620Z,90.80
2018-04-26T06:15:31.912Z,91.10
2018-04-26T06:18:00.391Z,91.10
2018-04-26T06:20:28.603Z,90.90
2018-04-26T06:22:57.587Z,90.90
2018-04-26T06:25:26.505Z,90.90
2018-04-26T06:27:54.573Z,91.10
2018-04-26T06:30:23.092Z,91.10
2018-04-26T06:32:51.263Z,91.40
2018-04-26T06:35:21.083Z,91.20
2018-04-26T06:37:49.703Z,91.00
2018-04-26T06:40:19.576Z,91.10
2018-04-26T06:42:47.849Z,91.10
2018-04-26T06:45:16.533Z,91.00
2018-04-26T06:47:46.449Z,91.10
2018-04-26T06:50:15.048Z,91.20
2018-04-26T06:52:43.361Z,90.90
2018-04-26T06:55:11.659Z,90.50
2018-04-26T06:57:40.367Z,90.60
2018-04-26T07:00:09.759Z,90.60
2018-04-26T07:02:38.773Z,90.70
2018-04-26T07:05:07.297Z,90.70
2018-04-26T07:07:35.823Z,90.40
2018-04-26T07:10:04.176Z,90.40
2018-04-26T07:12:32.519Z,90.30
2018-04-26T07:15:01.381Z,85.60
2018-04-26T07:17:29.864Z,85.60
2018-04-26T07:19:58.159Z,82.30
2018-04-26T07:22:26.961Z,81.00
2018-04-26T07:24:55.247Z,81.00
2018-04-26T07:27:23.497Z,83.10
2018-04-26T07:29:51.765Z,84.70
2018-04-26T07:32:20.206Z,85.80
2018-04-26T07:34:48.589Z,88.20
2018-04-26T07:37:16.905Z,87.10
2018-04-26T07:39:46.125Z,87.90
2018-04-26T07:42:14.173Z,87.80
2018-04-26T07:44:42.321Z,88.50
2018-04-26T07:47:11.841Z,86.40
2018-04-26T07:49:40.087Z,87.80
2018-04-26T07:52:08.486Z,85.00
2018-04-26T07:54:36.768Z,86.40
2018-04-26T07:57:05.201Z,84.70
2018-04-26T07:59:33.565Z,85.90
2018-04-26T08:02:01.680Z,86.20
2018-04-26T08:04:30.609Z,87.10
2018-04-26T08:06:58.702Z,86.40
2018-04-26T08:09:27.156Z,86.40
2018-04-26T08:11:55.282Z,82.50
2018-04-26T08:14:23.432Z,82.50
2018-04-26T08:16:51.612Z,82.10
2018-04-26T08:19:19.959Z,84.50
2018-04-26T08:21:48.309Z,83.70
2018-04-26T08:24:16.643Z,83.40
2018-04-26T08:26:44.666Z,83.50
2018-04-26T08:29:13.111Z,84.40
2018-04-26T08:31:41.470Z,84.20
2018-04-26T08:34:09.644Z,84.90
2018-04-26T08:36:37.829Z,84.80
2018-04-26T08:39:06.639Z,84.30
2018-04-26T08:41:34.794Z,84.80
2018-04-26T08:44:02.950Z,83.80
2018-04-26T08:46:31.085Z,84.50
2018-04-26T08:48:59.996Z,84.30
2018-04-26T08:51:28.347Z,84.30
2018-04-26T08:53:56.392Z,84.80
2018-04-26T08:56:24.763Z,84.10
2018-04-26T08:58:53.901Z,80.30
2018-04-26T09:01:22.076Z,80.20
2018-04-26T09:03:51.269Z,81.10
2018-04-26T09:06:20.541Z,82.30
2018-04-26T09:08:49.001Z,82.90
2018-04-26T09:11:17.269Z,80.90
2018-04-26T09:13:45.907Z,82.20
2018-04-26T09:16:14.282Z,83.80
2018-04-26T09:18:43.299Z,91.60
2018-04-26T09:21:11.684Z,92.10
2018-04-26T09:23:40.090Z,93.30
2018-04-26T09:26:08.463Z,93.50
2018-04-26T09:28:36.841Z,94.10
2018-04-26T09:31:05.225Z,93.80
2018-04-26T09:33:33.661Z,95.20
2018-04-26T09:36:03.151Z,95.10
2018-04-26T09:38:31.813Z,95.20
2018-04-26T09:41:00.759Z,94.80
2018-04-26T09:43:29.119Z,94.80
2018-04-26T09:45:58.070Z,93.20
2018-04-26T09:48:26.902Z,93.10
2018-04-26T09:50:55.289Z,93.30
2018-04-26T09:53:23.867Z,94.70
2018-04-26T09:55:52.992Z,93.50
2018-04-26T09:58:21.162Z,93.50
2018-04-26T10:00:53.376Z,95.80
2018-04-26T10:03:21.926Z,94.80
2018-04-26T10:05:54.713Z,94.00
2018-04-26T10:08:22.947Z,92.90
2018-04-26T10:10:52.282Z,92.20
2018-04-26T10:13:21.346Z,92.20
2018-04-26T10:15:50.809Z,92.00
2018-04-26T10:18:18.912Z,91.30
2018-04-26T10:20:47.130Z,90.50
2018-04-26T10:23:16.234Z,89.30
2018-04-26T10:25:45.278Z,89.50
2018-04-26T10:28:13.650Z,89.60
2018-04-26T10:30:44.451Z,89.30
2018-04-26T10:33:12.795Z,89.20
2018-04-26T10:35:41.177Z,87.10
2018-04-26T10:38:10.097Z,86.50
2018-04-26T10:40:38.913Z,84.60
2018-04-26T10:43:07.767Z,84.90
2018-04-26T10:45:35.990Z,84.90
2018-04-26T10:48:04.417Z,85.00
2018-04-26T10:50:32.433Z,85.90
2018-04-26T10:53:01.119Z,83.30
2018-04-26T10:55:29.239Z,82.50
2018-04-26T10:57:57.903Z,79.90
2018-04-26T11:00:26.401Z,77.80
2018-04-26T11:02:54.807Z,77.80
2018-04-26T11:05:23.124Z,78.40
2018-04-26T11:07:51.343Z,77.90
2018-04-26T11:10:19.544Z,78.70
2018-04-26T11:12:48.792Z,76.80
2018-04-26T11:15:16.860Z,76.80
2018-04-26T11:17:46.000Z,77.50
2018-04-26T11:20:15.064Z,78.50
2018-04-26T11:22:43.280Z,78.60
2018-04-26T11:25:11.656Z,78.50
2018-04-26T11:27:40.701Z,76.90
2018-04-26T11:30:08.775Z,76.80
2018-04-26T11:32:37.194Z,76.80
2018-04-26T11:35:06.397Z,77.60
2018-04-26T11:37:35.728Z,77.90
2018-04-26T11:40:04.253Z,77.90
2018-04-26T11:42:32.416Z,77.90
2018-04-26T11:45:00.845Z,78.70
2018-04-26T11:47:29.452Z,78.60
2018-04-26T11:49:58.675Z,78.70
2018-04-26T11:52:26.874Z,79.60
2018-04-26T11:54:55.058Z,80.00
2018-04-26T11:57:24.870Z,76.10
2018-04-26T11:59:53.919Z,77.30
2018-04-26T12:02:22.033Z,77.40
2018-04-26T12:04:50.189Z,77.10
2018-04-26T12:07:19.497Z,75.30
2018-04-26T12:09:48.456Z,75.50
2018-04-26T12:12:16.707Z,75.10
2018-04-26T12:14:44.832Z,74.40
2018-04-26T12:17:13.275Z,73.50
2018-04-26T12:19:42.490Z,73.50
2018-04-26T12:22:11.113Z,74.00
2018-04-26T12:24:39.948Z,73.50
2018-04-26T12:27:08.440Z,75.20
2018-04-26T12:29:36.610Z,76.00
2018-04-26T12:32:04.817Z,77.40
2018-04-26T12:34:33.912Z,76.70
2018-04-26T12:37:01.980Z,76.70
2018-04-26T12:39:31.551Z,77.00
2018-04-26T12:42:00.295Z,77.00
2018-04-26T12:44:28.581Z,77.50
2018-04-26T12:47:00.321Z,78.10
2018-04-26T12:49:28.616Z,78.90
2018-04-26T12:51:58.424Z,77.00
2018-04-26T12:54:27.141Z,77.00
2018-04-26T12:56:55.385Z,75.00
2018-04-26T12:59:23.764Z,74.60
2018-04-26T13:01:52.586Z,74.40
2018-04-26T13:04:21.168Z,75.20
2018-04-26T13:06:49.476Z,76.30
2018-04-26T13:09:17.759Z,79.30
2018-04-26T13:11:47.337Z,82.80
2018-04-26T13:14:15.599Z,82.90
2018-04-26T13:16:44.680Z,80.40
2018-04-26T13:19:13.489Z,80.30
2018-04-26T13:21:42.349Z,76.60
2018-04-26T13:24:10.822Z,75.50
2018-04-26T13:26:39.165Z,75.50
2018-04-26T13:29:07.684Z,75.00
2018-04-26T13:31:36.442Z,70.10
2018-04-26T13:34:05.585Z,69.00
2018-04-26T13:36:33.670Z,68.90
2018-04-26T13:39:01.958Z,65.00
2018-04-26T13:41:30.132Z,65.10
2018-04-26T13:43:58.388Z,64.40
2018-04-26T13:46:26.904Z,63.10
2018-04-26T13:48:56.308Z,61.00
2018-04-26T13:51:24.903Z,60.50
2018-04-26T13:53:53.711Z,59.30
2018-04-26T13:56:21.832Z,59.40
2018-04-26T13:58:50.195Z,60.70
2018-04-26T14:01:18.924Z,60.10
2018-04-26T14:03:47.763Z,60.20
2018-04-26T14:06:16.188Z,60.10
2018-04-26T14:08:45.613Z,60.20
2018-04-26T14:11:17.661Z,60.20
2018-04-26T14:13:47.160Z,61.50
2018-04-26T14:16:15.604Z,61.30
2018-04-26T14:18:43.754Z,59.70
2018-04-26T14:21:12.419Z,59.30
2018-04-26T14:23:40.636Z,59.50
2018-04-26T14:26:08.763Z,60.20
2018-04-26T14:28:38.018Z,61.30
2018-04-26T14:31:08.133Z,58.10
2018-04-26T14:33:37.267Z,58.30
2018-04-26T14:36:06.512Z,58.20
2018-04-26T14:38:35.802Z,58.20
2018-04-26T14:41:05.459Z,59.90
2018-04-26T14:43:33.589Z,59.20
2018-04-26T14:46:01.968Z,59.50
2018-04-26T14:48:30.280Z,59.10
2018-04-26T14:50:58.955Z,60.50
2018-04-26T14:53:27.134Z,61.10
2018-04-26T14:55:56.353Z,59.50
2018-04-26T14:58:24.798Z,59.50
2018-04-26T15:00:53.032Z,59.10
2018-04-26T15:03:21.498Z,59.50
2018-04-26T15:05:49.747Z,61.40
2018-04-26T15:08:18.833Z,59.70
2018-04-26T15:10:46.902Z,59.60
2018-04-26T15:13:15.299Z,59.40
2018-04-26T15:15:44.186Z,61.00
2018-04-26T15:18:12.290Z,61.00
2018-04-26T15:20:41.476Z,61.70
2018-04-26T15:23:10.463Z,60.00
2018-04-26T15:25:41.402Z,60.00
2018-04-26T15:28:10.764Z,59.50
2018-04-26T15:30:39.368Z,59.50
2018-04-26T15:33:08.453Z,59.30
2018-04-26T15:35:36.776Z,59.20
2018-04-26T15:38:05.734Z,59.10
2018-04-26T15:40:34.961Z,58.90
2018-04-26T15:43:03.233Z,58.90
2018-04-26T15:45:31.666Z,59.70
2018-04-26T15:48:00.114Z,60.00
2018-04-26T15:50:29.371Z,59.50
2018-04-26T15:55:12.480Z,57.60
2018-04-26T15:57:55.926Z,57.60
2018-04-26T16:01:34.005Z,59.20
2018-04-26T16:04:13.156Z,58.60
2018-04-26T16:07:16.857Z,60.50
2018-04-26T16:09:49.932Z,60.70
2018-04-26T16:14:41.253Z,60.70
2018-04-26T16:19:25.197Z,60.20
2018-04-26T16:24:11.524Z,60.60
2018-04-26T16:26:56.074Z,59.60
2018-04-26T16:29:40.015Z,59.50
2018-04-26T16:32:23.753Z,60.00
2018-04-26T16:36:04.528Z,59.50
2018-04-26T16:39:07.963Z,60.80
2018-04-26T16:41:37.030Z,60.40
2018-04-26T16:44:05.620Z,60.20
2018-04-26T16:46:34.861Z,60.30
2018-04-26T16:49:04.362Z,59.40
2018-04-26T16:51:33.328Z,59.30
2018-04-26T16:54:01.897Z,59.20
2018-04-26T16:56:30.361Z,59.90
2018-04-26T16:58:58.657Z,60.70
2018-04-26T17:01:27.271Z,60.70
2018-04-26T17:03:56.183Z,60.90
2018-04-26T17:06:24.774Z,61.10
2018-04-26T17:08:53.683Z,60.10
2018-04-26T17:11:22.211Z,60.20
2018-04-26T17:13:50.510Z,60.80
2018-04-26T17:16:19.368Z,60.80
2018-04-26T17:18:48.244Z,61.00
2018-04-26T17:21:17.527Z,61.90
2018-04-26T17:23:45.848Z,62.00
2018-04-26T17:26:16.143Z,62.60
2018-04-26T17:28:45.280Z,62.50
2018-04-26T17:31:13.520Z,62.80
2018-04-26T17:33:42.072Z,63.90
2018-04-26T17:36:10.633Z,63.70
2018-04-26T17:38:39.907Z,64.30
2018-04-26T17:41:09.243Z,65.40
2018-04-26T17:43:37.744Z,65.30
2018-04-26T17:46:09.497Z,64.30
2018-04-26T17:48:38.754Z,65.00
2018-04-26T17:51:07.257Z,65.10
2018-04-26T17:53:36.405Z,65.70
2018-04-26T17:56:04.620Z,65.70
2018-04-26T17:58:33.610Z,65.60
2018-04-26T18:01:01.773Z,65.60
2018-04-26T18:03:30.417Z,66.30
2018-04-26T18:05:59.279Z,66.40
2018-04-26T18:08:27.713Z,66.80
2018-04-26T18:10:56.711Z,67.70
2018-04-26T18:13:25.767Z,67.60
2018-04-26T18:15:53.784Z,67.60
2018-04-26T18:18:22.092Z,67.60
2018-04-26T18:20:50.583Z,67.60
2018-04-26T18:23:19.392Z,68.00
2018-04-26T18:25:48.365Z,68.80
2018-04-26T18:28:16.767Z,68.80
2018-04-26T18:30:46.301Z,69.40
2018-04-26T18:33:14.656Z,70.10
2018-04-26T18:35:43.831Z,70.50
2018-04-26T18:38:12.412Z,70.60
2018-04-26T18:40:40.752Z,71.30
2018-04-26T18:43:09.863Z,71.50
2018-04-26T18:45:37.455Z,71.80
2018-04-26T18:48:05.520Z,72.10
2018-04-26T18:50:33.801Z,72.90
2018-04-26T18:53:02.074Z,73.00
2018-04-26T18:55:30.400Z,72.50
2018-04-26T18:58:00.728Z,73.00
2018-04-26T19:00:28.977Z,73.00
2018-04-26T19:02:57.343Z,73.00
2018-04-26T19:05:26.336Z,73.40
2018-04-26T19:07:56.737Z,73.40
2018-04-26T19:10:25.340Z,73.80
2018-04-26T19:12:53.612Z,73.90
2018-04-26T19:15:23.346Z,74.10
2018-04-26T19:17:51.528Z,75.10
2018-04-26T19:20:19.760Z,75.50
2018-04-26T19:22:48.939Z,75.60
2018-04-26T19:25:18.280Z,76.20
2018-04-26T19:27:47.598Z,76.70
2018-04-26T19:30:17.425Z,76.00
2018-04-26T19:32:46.669Z,75.90
2018-04-26T19:35:15.345Z,76.30
2018-04-26T19:37:43.531Z,76.70
2018-04-26T19:40:13.158Z,77.10
2018-04-26T19:42:41.392Z,77.50
2018-04-26T19:45:09.432Z,78.10
2018-04-26T19:47:37.563Z,77.70
2018-04-26T19:50:06.833Z,78.50
2018-04-26T19:52:35.142Z,78.10
2018-04-26T19:55:03.609Z,78.50
2018-04-26T19:57:32.097Z,77.70
2018-04-26T20:00:00.248Z,77.00
2018-04-26T20:02:29.567Z,77.40
2018-04-26T20:04:57.832Z,77.40
2018-04-26T20:07:26.256Z,77.40
2018-04-26T20:09:55.314Z,77.50
2018-04-26T20:12:23.580Z,77.50
2018-04-26T20:14:51.961Z,78.00
2018-04-26T20:17:20.927Z,77.90
2018-04-26T20:19:49.956Z,78.90
2018-04-26T20:22:18.253Z,78.80
2018-04-26T20:24:47.366Z,78.50
2018-04-26T20:27:15.606Z,78.50
2018-04-26T20:29:43.999Z,77.90
2018-04-26T20:32:12.784Z,78.10
2018-04-26T20:34:42.926Z,79.70
2018-04-26T20:37:11.008Z,79.60
2018-04-26T20:39:39.560Z,80.10
2018-04-26T20:42:08.621Z,80.00
2018-04-26T20:44:47.819Z,80.00
2018-04-26T20:47:16.203Z,80.20
2018-04-26T20:49:44.697Z,80.10
2018-04-26T20:52:12.783Z,79.90
2018-04-26T20:54:41.095Z,80.10
2018-04-26T20:57:09.469Z,80.40
2018-04-26T20:59:37.949Z,80.60
2018-04-26T21:02:06.597Z,81.30
2018-04-26T21:04:35.115Z,82.30
2018-04-26T21:07:03.622Z,83.10
2018-04-26T21:09:31.656Z,83.90
2018-04-26T21:11:59.812Z,85.90
2018-04-26T21:14:29.192Z,85.90
2018-04-26T21:16:57.209Z,86.00
2018-04-26T21:19:26.208Z,86.50
2018-04-26T21:21:55.639Z,86.70
2018-04-26T21:24:24.110Z,86.70
2018-04-26T21:26:53.394Z,87.10
2018-04-26T21:29:22.093Z,87.10
2018-04-26T21:31:51.229Z,87.60
2018-04-26T21:34:19.401Z,87.50
2018-04-26T21:36:47.430Z,87.80
2018-04-26T21:39:16.046Z,88.00
2018-04-26T21:41:44.188Z,87.40
2018-04-26T21:44:13.692Z,87.70
2018-04-26T21:46:42.321Z,87.60
2018-04-26T21:49:10.959Z,88.00
2018-04-26T21:51:45.750Z,87.90
2018-04-26T21:54:19.655Z,87.90
2018-04-26T21:56:54.092Z,88.70
2018-04-26T21:59:28.676Z,89.10
2018-04-26T22:02:03.136Z,90.00
2018-04-26T22:04:32.158Z,90.30
2018-04-26T22:07:01.185Z,90.50
2018-04-26T22:09:29.462Z,90.50
2018-04-26T22:11:58.556Z,90.70
2018-04-26T22:14:26.947Z,90.60
2018-04-26T22:16:55.229Z,90.50
2018-04-26T22:19:23.448Z,90.50
2018-04-26T22:21:51.625Z,90.60
2018-04-26T22:24:19.920Z,90.80
2018-04-26T22:26:48.402Z,91.00
2018-04-26T22:29:16.905Z,91.20
2018-04-26T22:31:46.104Z,91.50
2018-04-26T22:34:14.909Z,91.60
2018-04-26T22:36:43.081Z,91.60
2018-04-26T22:39:12.341Z,91.80
2018-04-26T22:41:40.557Z,92.20
2018-04-26T22:44:09.095Z,92.20
2018-04-26T22:46:37.385Z,92.10
2018-04-26T22:49:05.552Z,92.50
2018-04-26T22:51:35.644Z,92.40
2018-04-26T22:54:04.891Z,92.50
2018-04-26T22:56:32.935Z,92.40
2018-04-26T22:59:01.044Z,92.50
2018-04-26T23:01:30.351Z,92.30
2018-04-26T23:03:59.400Z,92.20
2018-04-26T23:06:27.980Z,92.20
2018-04-26T23:08:56.257Z,92.20
2018-04-26T23:11:25.209Z,92.80
2018-04-26T23:13:54.145Z,93.10
2018-04-26T23:16:22.744Z,93.10
2018-04-26T23:18:51.824Z,93.20
2018-04-26T23:21:19.980Z,93.10
2018-04-26T23:23:48.332Z,93.20
2018-04-26T23:26:17.529Z,93.50
2018-04-26T23:28:46.050Z,93.50
2018-04-26T23:31:14.393Z,93.50
2018-04-26T23:33:42.844Z,93.60
2018-04-26T23:36:11.209Z,93.70
2018-04-26T23:38:40.272Z,93.90
2018-04-26T23:41:09.844Z,93.80
2018-04-26T23:43:39.112Z,93.60
2018-04-26T23:46:09.162Z,93.90
2018-04-26T23:48:37.492Z,93.90
2018-04-26T23:51:05.932Z,93.80
2018-04-26T23:53:34.140Z,93.80
2018-04-26T23:56:02.496Z,94.00
2018-04-26T23:58:32.687Z,94.00
